createdAt,value
2023-02-27T00:02:23.455Z,3.78
2023-02-27T00:04:50.505Z,2.67
2023-02-27T00:07:17.814Z,2.90
2023-02-27T00:09:44.416Z,2.67
2023-02-27T00:12:11.995Z,2.90
2023-02-27T00:14:38.715Z,2.90
2023-02-27T00:17:05.300Z,2.93
2023-02-27T00:19:31.868Z,3.28
2023-02-27T00:21:58.411Z,3.08
2023-02-27T00:24:25.175Z,3.25
2023-02-27T00:26:51.685Z,3.50
2023-02-27T00:29:18.302Z,3.07
2023-02-27T00:31:45.093Z,2.85
2023-02-27T00:34:11.723Z,2.90
2023-02-27T00:36:38.343Z,2.80
2023-02-27T00:39:04.978Z,2.72
2023-02-27T00:41:31.553Z,3.23
2023-02-27T00:43:58.271Z,2.63
2023-02-27T00:46:25.029Z,2.85
2023-02-27T00:48:51.845Z,3.13
2023-02-27T00:51:20.301Z,2.60
2023-02-27T00:53:46.936Z,2.37
2023-02-27T00:56:14.022Z,2.10
2023-02-27T00:58:40.605Z,2.90
2023-02-27T01:01:07.264Z,2.28
2023-02-27T01:03:33.888Z,2.03
2023-02-27T01:06:00.521Z,1.90
2023-02-27T01:08:27.183Z,2.17
2023-02-27T01:10:55.277Z,2.00
2023-02-27T01:13:22.776Z,1.83
2023-02-27T01:15:49.732Z,2.00
2023-02-27T01:18:19.028Z,1.87
2023-02-27T01:20:46.051Z,2.10
2023-02-27T01:23:12.708Z,1.83
2023-02-27T01:25:39.368Z,1.90
2023-02-27T01:28:06.037Z,1.70
2023-02-27T01:30:32.781Z,1.73
2023-02-27T01:32:59.498Z,1.80
2023-02-27T01:35:26.641Z,1.52
2023-02-27T01:37:53.428Z,1.48
2023-02-27T01:40:20.381Z,1.58
2023-02-27T01:42:47.206Z,1.53
2023-02-27T01:45:32.790Z,1.30
2023-02-27T01:48:10.136Z,1.20
2023-02-27T01:50:41.763Z,1.45
2023-02-27T01:53:08.742Z,1.20
2023-02-27T01:55:38.858Z,1.60
2023-02-27T01:58:07.942Z,1.65
2023-02-27T02:00:34.820Z,1.73
2023-02-27T02:03:08.341Z,1.48
2023-02-27T02:05:35.807Z,1.50
2023-02-27T02:08:03.582Z,1.60
2023-02-27T02:10:31.660Z,1.15
2023-02-27T02:12:58.996Z,1.60
2023-02-27T02:15:33.509Z,1.48
2023-02-27T02:18:03.010Z,1.20
2023-02-27T02:20:45.500Z,1.33
2023-02-27T02:23:27.722Z,1.25
2023-02-27T02:26:33.524Z,1.13
2023-02-27T02:29:25.157Z,1.70
2023-02-27T02:32:18.966Z,1.42
2023-02-27T02:35:17.190Z,1.50
2023-02-27T02:37:58.901Z,1.70
2023-02-27T02:40:30.477Z,1.80
2023-02-27T02:43:17.289Z,1.40
2023-02-27T02:46:02.313Z,1.50
2023-02-27T02:48:41.949Z,1.60
2023-02-27T02:51:14.547Z,1.40
2023-02-27T02:53:51.660Z,1.75
2023-02-27T02:56:26.358Z,1.70
2023-02-27T02:59:16.114Z,1.77
2023-02-27T03:01:49.131Z,1.83
2023-02-27T03:04:39.682Z,1.65
2023-02-27T03:07:31.566Z,1.40
2023-02-27T03:10:05.158Z,1.90
2023-02-27T03:12:33.798Z,1.65
2023-02-27T03:15:10.846Z,1.40
2023-02-27T03:18:04.888Z,1.50
2023-02-27T03:20:39.742Z,1.80
2023-02-27T03:23:11.929Z,1.67
2023-02-27T03:25:40.096Z,1.70
2023-02-27T03:28:10.934Z,1.57
2023-02-27T03:30:46.914Z,1.65
2023-02-27T03:33:53.152Z,1.40
2023-02-27T03:36:43.304Z,1.38
2023-02-27T03:39:25.272Z,1.52
2023-02-27T03:42:20.450Z,1.33
2023-02-27T03:45:24.640Z,1.40
2023-02-27T03:47:51.628Z,1.50
2023-02-27T03:50:18.560Z,1.85
2023-02-27T03:52:46.112Z,1.88
2023-02-27T03:55:17.474Z,1.37
2023-02-27T03:57:46.423Z,1.58
2023-02-27T04:00:17.842Z,1.77
2023-02-27T04:02:46.907Z,1.80
2023-02-27T04:05:13.548Z,1.67
2023-02-27T04:08:08.155Z,1.70
2023-02-27T04:10:59.493Z,2.05
2023-02-27T04:13:44.283Z,1.50
2023-02-27T04:16:26.477Z,1.60
2023-02-27T04:18:59.020Z,2.33
2023-02-27T04:21:40.781Z,1.83
2023-02-27T04:24:16.917Z,1.65
2023-02-27T04:26:49.881Z,1.90
2023-02-27T04:29:44.326Z,1.80
2023-02-27T04:32:40.468Z,2.10
2023-02-27T04:35:32.265Z,3.13
2023-02-27T04:38:25.850Z,2.50
2023-02-27T04:40:55.119Z,2.85
2023-02-27T04:43:24.903Z,2.20
2023-02-27T04:45:54.708Z,2.30
2023-02-27T04:48:26.240Z,2.87
2023-02-27T04:51:12.318Z,2.80
2023-02-27T04:54:01.781Z,2.58
2023-02-27T04:56:34.792Z,2.20
2023-02-27T04:59:33.515Z,2.30
2023-02-27T05:02:06.528Z,2.50
2023-02-27T05:04:37.139Z,2.10
2023-02-27T05:07:07.085Z,1.67
2023-02-27T05:09:55.221Z,1.80
2023-02-27T05:12:26.815Z,2.03
2023-02-27T05:15:06.283Z,2.20
2023-02-27T05:17:38.854Z,1.90
2023-02-27T05:20:09.052Z,1.80
2023-02-27T05:22:38.411Z,2.53
2023-02-27T05:25:14.025Z,2.00
2023-02-27T05:27:56.611Z,2.80
2023-02-27T05:30:36.867Z,2.65
2023-02-27T05:33:18.015Z,3.03
2023-02-27T05:36:17.208Z,2.83
2023-02-27T05:38:48.802Z,2.65
2023-02-27T05:41:25.809Z,2.70
2023-02-27T05:44:05.248Z,2.28
2023-02-27T05:46:37.218Z,2.30
2023-02-27T05:49:18.337Z,2.22
2023-02-27T05:51:49.141Z,2.00
2023-02-27T05:54:43.932Z,2.10
2023-02-27T05:57:16.493Z,1.88
2023-02-27T05:59:50.166Z,2.42
2023-02-27T06:02:17.334Z,2.30
2023-02-27T06:04:44.029Z,2.70
2023-02-27T06:07:13.865Z,3.17
2023-02-27T06:09:42.040Z,2.95
2023-02-27T06:12:08.834Z,2.60
2023-02-27T06:14:35.382Z,3.17
2023-02-27T06:17:02.165Z,3.25
2023-02-27T06:19:28.804Z,3.53
2023-02-27T06:21:55.406Z,3.90
2023-02-27T06:24:22.228Z,7.43
2023-02-27T06:26:48.841Z,5.53
2023-02-27T06:29:15.375Z,4.10
2023-02-27T06:31:42.165Z,3.97
2023-02-27T06:34:08.740Z,3.17
2023-02-27T06:36:35.303Z,3.50
2023-02-27T06:39:01.985Z,3.38
2023-02-27T06:41:29.083Z,3.70
2023-02-27T06:43:56.422Z,3.40
2023-02-27T06:46:24.200Z,3.17
2023-02-27T06:48:50.765Z,3.00
2023-02-27T06:51:17.516Z,2.88
2023-02-27T06:53:44.526Z,2.90
2023-02-27T06:56:11.097Z,2.60
2023-02-27T06:58:37.661Z,2.83
2023-02-27T07:01:04.441Z,2.40
2023-02-27T07:03:31.074Z,2.40
2023-02-27T07:05:58.770Z,2.50
2023-02-27T07:08:25.444Z,2.70
2023-02-27T07:10:52.083Z,2.78
2023-02-27T07:13:19.742Z,2.67
2023-02-27T07:15:46.691Z,3.17
2023-02-27T07:18:13.297Z,2.58
2023-02-27T07:20:40.292Z,2.60
2023-02-27T07:23:07.442Z,2.47
2023-02-27T07:25:34.051Z,2.65
2023-02-27T07:28:00.702Z,2.80
2023-02-27T07:30:30.618Z,2.10
2023-02-27T07:32:58.049Z,2.10
2023-02-27T07:35:24.703Z,2.40
2023-02-27T07:37:51.612Z,2.38
2023-02-27T07:40:18.559Z,2.70
2023-02-27T07:42:48.143Z,1.90
2023-02-27T07:45:15.229Z,1.83
2023-02-27T07:47:43.337Z,2.60
2023-02-27T07:50:14.044Z,2.17
2023-02-27T07:52:41.708Z,2.40
2023-02-27T07:55:10.034Z,2.20
2023-02-27T07:57:36.646Z,2.03
2023-02-27T08:00:09.427Z,2.03
2023-02-27T08:02:36.024Z,2.00
2023-02-27T08:05:02.865Z,2.13
2023-02-27T08:07:29.387Z,1.77
2023-02-27T08:09:55.969Z,1.97
2023-02-27T08:12:22.621Z,1.73
2023-02-27T08:14:49.318Z,1.88
2023-02-27T08:17:16.009Z,2.28
2023-02-27T08:19:42.644Z,2.05
2023-02-27T08:22:09.289Z,1.90
2023-02-27T08:24:35.840Z,1.48
2023-02-27T08:27:02.629Z,1.77
2023-02-27T08:29:30.911Z,1.67
2023-02-27T08:31:57.735Z,2.00
2023-02-27T08:34:25.713Z,2.80
2023-02-27T08:36:52.739Z,2.22
2023-02-27T08:39:20.219Z,3.60
2023-02-27T08:41:46.869Z,3.00
2023-02-27T08:44:13.588Z,2.00
2023-02-27T08:46:40.204Z,1.70
2023-02-27T08:49:06.876Z,2.20
2023-02-27T08:51:33.524Z,2.58
2023-02-27T08:54:00.166Z,1.60
2023-02-27T08:56:28.049Z,1.73
2023-02-27T08:58:55.518Z,2.00
2023-02-27T09:01:22.241Z,1.63
2023-02-27T09:03:49.437Z,1.80
2023-02-27T09:06:16.303Z,1.50
2023-02-27T09:08:42.919Z,2.28
2023-02-27T09:11:09.521Z,1.70
2023-02-27T09:13:36.114Z,2.00
2023-02-27T09:16:02.694Z,1.45
2023-02-27T09:18:29.230Z,1.95
2023-02-27T09:20:56.431Z,2.38
2023-02-27T09:23:23.367Z,2.90
2023-02-27T09:25:50.023Z,1.85
2023-02-27T09:28:16.729Z,1.73
2023-02-27T09:30:43.255Z,1.48
2023-02-27T09:33:09.791Z,1.58
2023-02-27T09:35:36.949Z,1.80
2023-02-27T09:38:03.673Z,1.67
2023-02-27T09:40:32.717Z,1.42
2023-02-27T09:43:04.020Z,1.33
2023-02-27T09:45:33.175Z,1.48
2023-02-27T09:48:19.329Z,1.40
2023-02-27T09:50:48.853Z,1.40
2023-02-27T09:53:31.179Z,1.48
2023-02-27T09:56:05.231Z,1.42
2023-02-27T09:58:41.009Z,1.60
2023-02-27T10:01:23.412Z,1.77
2023-02-27T10:03:56.286Z,1.40
2023-02-27T10:06:27.740Z,1.73
2023-02-27T10:09:02.795Z,1.38
2023-02-27T10:11:54.830Z,1.50
2023-02-27T10:14:47.474Z,1.60
2023-02-27T10:17:22.834Z,1.60
2023-02-27T10:19:52.254Z,1.60
2023-02-27T10:22:26.295Z,1.50
2023-02-27T10:24:59.893Z,1.33
2023-02-27T10:27:26.628Z,1.80
2023-02-27T10:29:57.970Z,1.73
2023-02-27T10:32:29.872Z,1.33
2023-02-27T10:35:27.548Z,1.60
2023-02-27T10:38:04.197Z,1.30
2023-02-27T10:40:31.414Z,1.10
2023-02-27T10:43:01.405Z,0.90
2023-02-27T10:45:28.018Z,1.08
2023-02-27T10:47:55.286Z,1.20
2023-02-27T10:50:31.858Z,1.27
2023-02-27T10:53:03.661Z,1.40
2023-02-27T10:55:36.289Z,1.20
2023-02-27T10:58:04.751Z,1.27
2023-02-27T11:00:45.269Z,1.48
2023-02-27T11:03:42.491Z,1.30
2023-02-27T11:06:22.406Z,1.52
2023-02-27T11:09:10.678Z,1.70
2023-02-27T11:11:38.021Z,1.33
2023-02-27T11:14:19.814Z,1.60
2023-02-27T11:16:52.434Z,1.63
2023-02-27T11:19:34.928Z,1.58
2023-02-27T11:22:20.380Z,1.50
2023-02-27T11:24:48.144Z,1.30
2023-02-27T11:27:22.875Z,1.30
2023-02-27T11:30:06.155Z,1.58
2023-02-27T11:32:35.493Z,1.20
2023-02-27T11:35:04.370Z,1.00
2023-02-27T11:37:35.052Z,0.80
2023-02-27T11:40:12.821Z,0.50
2023-02-27T11:42:51.832Z,0.80
2023-02-27T11:46:13.911Z,0.80
2023-02-27T11:48:19.620Z,0.70
2023-02-27T11:51:20.355Z,0.70
2023-02-27T11:54:01.735Z,1.10
2023-02-27T11:56:47.738Z,0.90
2023-02-27T11:59:38.985Z,0.75
2023-02-27T12:02:14.853Z,0.70
2023-02-27T12:04:54.066Z,0.50
2023-02-27T12:07:27.369Z,0.60
2023-02-27T12:10:08.737Z,0.52
2023-02-27T12:12:50.459Z,0.30
2023-02-27T12:15:47.284Z,0.43
2023-02-27T12:18:26.868Z,0.32
2023-02-27T12:20:53.459Z,0.40
2023-02-27T12:23:39.996Z,0.30
2023-02-27T12:26:22.136Z,0.30
2023-02-27T12:29:02.128Z,0.40
2023-02-27T12:31:42.402Z,0.30
2023-02-27T12:34:29.385Z,0.30
2023-02-27T12:37:33.574Z,0.20
2023-02-27T12:40:01.905Z,0.43
2023-02-27T12:42:59.748Z,0.25
2023-02-27T12:45:53.727Z,0.43
2023-02-27T12:48:38.331Z,0.30
2023-02-27T12:51:07.674Z,0.45
2023-02-27T12:53:43.628Z,0.30
2023-02-27T12:56:17.135Z,0.30
2023-02-27T12:59:25.587Z,0.38
2023-02-27T13:02:02.266Z,0.20
2023-02-27T13:04:47.666Z,0.20
2023-02-27T13:07:29.747Z,0.30
2023-02-27T13:10:01.849Z,0.30
2023-02-27T13:12:42.923Z,0.50
2023-02-27T13:15:25.382Z,0.40
2023-02-27T13:17:59.253Z,6.82
2023-02-27T13:20:36.156Z,1.20
2023-02-27T13:23:19.954Z,0.95
2023-02-27T13:25:51.160Z,0.80
2023-02-27T13:28:27.152Z,0.60
2023-02-27T13:31:29.595Z,0.47
2023-02-27T13:34:17.789Z,0.70
2023-02-27T13:36:48.918Z,0.40
2023-02-27T13:39:40.427Z,0.57
2023-02-27T13:42:25.495Z,0.40
2023-02-27T13:44:58.902Z,0.50
2023-02-27T13:47:31.415Z,0.40
2023-02-27T13:50:04.020Z,1.00
2023-02-27T13:52:33.970Z,0.60
2023-02-27T13:55:11.300Z,0.40
2023-02-27T13:57:39.095Z,2.30
2023-02-27T14:00:53.258Z,1.10
2023-02-27T14:03:25.998Z,0.30
2023-02-27T14:05:56.398Z,0.50
2023-02-27T14:08:46.090Z,0.57
2023-02-27T14:11:28.577Z,0.38
2023-02-27T14:13:57.015Z,0.40
2023-02-27T14:16:41.746Z,0.38
2023-02-27T14:19:22.569Z,0.40
2023-02-27T14:21:52.856Z,0.40
2023-02-27T14:24:49.595Z,0.40
2023-02-27T14:27:28.958Z,0.35
2023-02-27T14:29:58.553Z,0.40
2023-02-27T14:32:32.303Z,0.30
2023-02-27T14:35:00.130Z,0.95
2023-02-27T14:37:27.869Z,2.70
2023-02-27T14:39:56.870Z,1.27
2023-02-27T14:43:02.104Z,0.50
2023-02-27T14:45:30.900Z,0.90
2023-02-27T14:47:58.432Z,1.20
2023-02-27T14:50:37.441Z,0.75
2023-02-27T14:53:05.745Z,0.22
2023-02-27T14:55:34.993Z,0.50
2023-02-27T14:58:07.609Z,0.30
2023-02-27T15:00:38.432Z,0.40
2023-02-27T15:03:11.165Z,0.40
2023-02-27T15:05:38.724Z,0.37
2023-02-27T15:08:05.370Z,0.40
2023-02-27T15:10:33.241Z,0.35
2023-02-27T15:13:01.402Z,0.30
2023-02-27T15:15:28.631Z,0.20
2023-02-27T15:17:55.837Z,0.30
2023-02-27T15:20:24.580Z,0.30
2023-02-27T15:22:51.183Z,0.30
2023-02-27T15:25:31.864Z,0.32
2023-02-27T15:28:03.176Z,0.30
2023-02-27T15:30:30.132Z,0.40
2023-02-27T15:32:57.583Z,0.30
2023-02-27T15:35:30.400Z,0.38
2023-02-27T15:37:59.357Z,0.30
2023-02-27T15:40:28.212Z,0.20
2023-02-27T15:42:56.098Z,0.70
2023-02-27T15:45:34.057Z,0.75
2023-02-27T15:48:01.046Z,0.70
2023-02-27T15:50:33.717Z,0.50
2023-02-27T15:53:09.439Z,0.50
2023-02-27T15:55:39.594Z,0.30
2023-02-27T15:58:26.443Z,0.43
2023-02-27T16:01:13.141Z,0.40
2023-02-27T16:03:46.008Z,0.40
2023-02-27T16:06:18.346Z,0.30
2023-02-27T16:08:50.933Z,0.40
2023-02-27T16:11:23.428Z,0.50
2023-02-27T16:13:51.646Z,0.57
2023-02-27T16:16:21.277Z,0.60
2023-02-27T16:18:50.649Z,1.00
2023-02-27T16:21:19.646Z,1.40
2023-02-27T16:23:47.476Z,2.45
2023-02-27T16:26:31.025Z,1.63
2023-02-27T16:29:19.164Z,2.20
2023-02-27T16:31:49.222Z,2.00
2023-02-27T16:34:42.773Z,3.07
2023-02-27T16:37:22.866Z,3.47
2023-02-27T16:39:52.191Z,5.07
2023-02-27T16:42:19.077Z,5.63
2023-02-27T16:44:45.718Z,3.97
2023-02-27T16:47:12.694Z,3.63
2023-02-27T16:49:40.378Z,3.28
2023-02-27T16:52:10.353Z,2.75
2023-02-27T16:54:37.143Z,2.17
2023-02-27T16:57:04.428Z,2.17
2023-02-27T16:59:36.289Z,2.60
2023-02-27T17:02:06.970Z,3.35
2023-02-27T17:04:33.751Z,3.13
2023-02-27T17:07:02.024Z,3.58
2023-02-27T17:09:29.251Z,3.58
2023-02-27T17:11:56.997Z,5.10
2023-02-27T17:14:24.452Z,5.70
2023-02-27T17:16:50.968Z,5.40
2023-02-27T17:19:17.609Z,5.63
2023-02-27T17:21:44.266Z,3.95
2023-02-27T17:24:11.037Z,2.53
2023-02-27T17:26:37.639Z,2.83
2023-02-27T17:29:05.188Z,3.78
2023-02-27T17:31:31.791Z,3.78
2023-02-27T17:33:58.374Z,2.10
2023-02-27T17:36:25.713Z,1.80
2023-02-27T17:38:57.194Z,1.60
2023-02-27T17:41:24.472Z,1.02
2023-02-27T17:43:52.677Z,0.85
2023-02-27T17:46:19.604Z,0.70
2023-02-27T17:48:47.085Z,0.87
2023-02-27T17:51:15.288Z,0.80
2023-02-27T17:53:42.848Z,0.90
2023-02-27T17:56:10.399Z,0.88
2023-02-27T17:58:37.167Z,0.60
2023-02-27T18:01:09.346Z,0.60
2023-02-27T18:03:36.384Z,0.68
2023-02-27T18:06:03.727Z,0.47
2023-02-27T18:08:31.487Z,1.50
2023-02-27T18:10:58.631Z,4.57
2023-02-27T18:13:27.241Z,4.70
2023-02-27T18:15:55.198Z,4.65
2023-02-27T18:18:22.448Z,5.25
2023-02-27T18:21:00.076Z,4.47
2023-02-27T18:23:26.746Z,4.47
2023-02-27T18:25:59.572Z,5.80
2023-02-27T18:28:26.700Z,5.78
2023-02-27T18:30:53.583Z,5.25
2023-02-27T18:33:20.253Z,5.30
2023-02-27T18:35:47.075Z,5.68
2023-02-27T18:38:13.776Z,7.47
2023-02-27T18:40:40.394Z,7.30
2023-02-27T18:43:07.619Z,7.20
2023-02-27T18:45:34.456Z,7.28
2023-02-27T18:48:01.491Z,8.20
2023-02-27T18:50:28.201Z,8.23
2023-02-27T18:52:56.117Z,11.35
2023-02-27T18:55:22.871Z,12.90
2023-02-27T18:57:50.859Z,17.10
2023-02-27T19:00:24.326Z,17.45
2023-02-27T19:02:51.313Z,15.70
2023-02-27T19:05:18.501Z,15.13
2023-02-27T19:07:45.366Z,13.82
2023-02-27T19:10:12.955Z,14.02
2023-02-27T19:12:39.521Z,14.27
2023-02-27T19:15:06.896Z,15.33
2023-02-27T19:17:33.705Z,15.02
2023-02-27T19:20:00.381Z,13.52
2023-02-27T19:22:30.775Z,13.43
2023-02-27T19:24:57.385Z,13.75
2023-02-27T19:27:24.302Z,13.13
2023-02-27T19:29:51.400Z,10.57
2023-02-27T19:32:18.062Z,8.40
2023-02-27T19:34:44.656Z,8.40
2023-02-27T19:37:11.336Z,8.57
2023-02-27T19:39:37.943Z,8.53
2023-02-27T19:42:04.618Z,8.93
2023-02-27T19:44:31.248Z,9.82
2023-02-27T19:46:57.872Z,9.88
2023-02-27T19:49:24.624Z,11.02
2023-02-27T19:51:51.306Z,11.50
2023-02-27T19:54:18.078Z,11.82
2023-02-27T19:56:44.828Z,12.32
2023-02-27T19:59:12.464Z,12.18
2023-02-27T20:01:39.521Z,10.18
2023-02-27T20:04:07.790Z,9.87
2023-02-27T20:06:53.830Z,10.68
2023-02-27T20:09:20.763Z,10.65
2023-02-27T20:11:50.953Z,10.73
2023-02-27T20:14:17.682Z,10.98
2023-02-27T20:16:44.925Z,10.87
2023-02-27T20:19:17.333Z,10.60
2023-02-27T20:21:45.456Z,10.20
2023-02-27T20:24:14.166Z,10.32
2023-02-27T20:26:47.725Z,10.13
2023-02-27T20:29:20.056Z,10.47
2023-02-27T20:31:48.863Z,10.20
2023-02-27T20:34:21.766Z,10.90
2023-02-27T20:36:53.098Z,9.98
2023-02-27T20:39:20.776Z,9.18
2023-02-27T20:41:47.685Z,8.17
2023-02-27T20:44:14.724Z,7.72
2023-02-27T20:46:42.657Z,7.78
2023-02-27T20:49:12.335Z,6.82
2023-02-27T20:51:39.433Z,7.45
2023-02-27T20:54:08.418Z,7.90
2023-02-27T20:56:39.829Z,7.57
2023-02-27T20:59:09.551Z,7.22
2023-02-27T21:01:38.477Z,6.63
2023-02-27T21:04:05.403Z,6.50
2023-02-27T21:06:32.318Z,6.73
2023-02-27T21:09:04.063Z,6.30
2023-02-27T21:11:31.800Z,6.40
2023-02-27T21:14:02.215Z,6.30
2023-02-27T21:16:28.860Z,5.72
2023-02-27T21:18:56.922Z,5.20
2023-02-27T21:21:33.116Z,5.25
2023-02-27T21:24:00.196Z,4.78
2023-02-27T21:26:26.734Z,4.35
2023-02-27T21:28:56.400Z,3.92
2023-02-27T21:31:24.485Z,4.30
2023-02-27T21:33:52.306Z,4.13
2023-02-27T21:36:25.122Z,4.20
2023-02-27T21:38:58.450Z,3.90
2023-02-27T21:41:25.157Z,3.17
2023-02-27T21:43:51.687Z,3.00
2023-02-27T21:46:20.801Z,2.60
2023-02-27T21:48:47.577Z,2.72
2023-02-27T21:51:14.099Z,2.85
2023-02-27T21:53:40.969Z,2.00
2023-02-27T21:56:09.941Z,2.17
2023-02-27T21:58:37.241Z,2.20
2023-02-27T22:01:15.407Z,2.10
2023-02-27T22:03:43.359Z,2.20
2023-02-27T22:06:11.131Z,3.17
2023-02-27T22:08:38.376Z,3.20
2023-02-27T22:11:05.171Z,3.50
2023-02-27T22:13:32.188Z,3.33
2023-02-27T22:16:05.330Z,3.58
2023-02-27T22:18:32.801Z,2.70
2023-02-27T22:21:00.236Z,2.90
2023-02-27T22:23:27.158Z,2.60
2023-02-27T22:26:08.048Z,2.38
2023-02-27T22:28:35.353Z,2.13
2023-02-27T22:31:06.931Z,2.15
2023-02-27T22:33:33.539Z,2.27
2023-02-27T22:36:00.282Z,2.50
2023-02-27T22:38:26.936Z,2.20
2023-02-27T22:40:53.523Z,2.53
2023-02-27T22:43:20.120Z,2.60
2023-02-27T22:45:47.121Z,2.27
2023-02-27T22:48:13.964Z,1.75
2023-02-27T22:50:40.585Z,1.95
2023-02-27T22:53:07.094Z,1.80
2023-02-27T22:55:33.669Z,1.65
2023-02-27T22:58:00.227Z,1.80
2023-02-27T23:00:26.781Z,1.58
2023-02-27T23:02:53.269Z,1.38
2023-02-27T23:05:20.058Z,1.40
2023-02-27T23:07:47.177Z,1.67
2023-02-27T23:10:13.723Z,1.60
2023-02-27T23:12:40.402Z,1.90
2023-02-27T23:15:07.811Z,1.83
2023-02-27T23:17:34.392Z,1.70
2023-02-27T23:20:00.897Z,1.95
2023-02-27T23:22:33.293Z,1.73
2023-02-27T23:25:00.573Z,1.75
2023-02-27T23:27:27.097Z,2.15
2023-02-27T23:29:53.739Z,1.73
2023-02-27T23:32:20.479Z,2.13
2023-02-27T23:34:49.579Z,2.20
2023-02-27T23:37:16.557Z,2.40
2023-02-27T23:39:43.196Z,1.98
2023-02-27T23:42:09.748Z,2.40
2023-02-27T23:44:36.300Z,2.00
2023-02-27T23:47:02.876Z,2.30
2023-02-27T23:49:29.453Z,2.10
2023-02-27T23:51:56.089Z,2.60
2023-02-27T23:54:22.667Z,2.42
2023-02-27T23:56:49.310Z,2.30
2023-02-27T23:59:15.859Z,2.30
